createdAt,value
2023-11-29T00:00:25.314Z,99627.22
2023-11-29T00:02:55.218Z,99618.50
2023-11-29T00:05:29.900Z,99607.13
2023-11-29T00:08:09.645Z,99600.44
2023-11-29T00:10:39.733Z,99602.84
2023-11-29T00:13:09.671Z,99583.94
2023-11-29T00:15:39.502Z,99577.03
2023-11-29T00:18:10.080Z,99574.03
2023-11-29T00:20:40.074Z,99571.16
2023-11-29T00:23:12.740Z,99567.09
2023-11-29T00:25:42.771Z,99574.84
2023-11-29T00:28:13.152Z,99568.75
2023-11-29T00:30:43.234Z,99559.81
2023-11-29T00:33:13.197Z,99558.19
2023-11-29T00:35:43.174Z,99558.56
2023-11-29T00:38:15.806Z,99552.53
2023-11-29T00:40:45.888Z,99550.31
2023-11-29T00:43:16.166Z,99542.19
2023-11-29T00:45:46.231Z,99547.69
2023-11-29T00:48:16.211Z,99539.56
2023-11-29T00:50:46.286Z,99531.25
2023-11-29T00:53:19.023Z,99536.91
2023-11-29T00:55:49.469Z,99525.53
2023-11-29T00:58:19.498Z,99525.56
2023-11-29T01:00:49.329Z,99522.50
2023-11-29T01:03:19.385Z,99521.69
2023-11-29T01:05:49.348Z,99515.63
2023-11-29T01:08:26.829Z,99510.94
2023-11-29T01:10:57.441Z,99506.66
2023-11-29T01:13:27.190Z,99505.06
2023-11-29T01:15:56.967Z,99495.09
2023-11-29T01:18:29.147Z,99512.13
2023-11-29T01:20:59.244Z,99506.69
2023-11-29T01:23:31.854Z,99507.88
2023-11-29T01:26:01.856Z,99501.59
2023-11-29T01:28:33.215Z,99512.34
2023-11-29T01:31:03.160Z,99509.72
2023-11-29T01:33:33.813Z,99511.97
2023-11-29T01:36:09.962Z,99517.25
2023-11-29T01:38:42.600Z,99511.13
2023-11-29T01:41:12.716Z,99510.31
2023-11-29T01:43:42.579Z,99503.41
2023-11-29T01:46:13.019Z,99502.00
2023-11-29T01:48:43.738Z,99499.16
2023-11-29T01:51:14.165Z,99491.63
2023-11-29T01:53:47.187Z,99493.44
2023-11-29T01:56:18.076Z,99487.75
2023-11-29T01:58:48.272Z,99490.41
2023-11-29T02:01:18.589Z,99490.59
2023-11-29T02:03:48.696Z,99494.06
2023-11-29T02:06:18.780Z,99494.03
2023-11-29T02:08:51.494Z,99484.91
2023-11-29T02:11:23.665Z,99488.16
2023-11-29T02:13:53.484Z,99484.47
2023-11-29T02:16:23.432Z,99483.44
2023-11-29T02:18:53.385Z,99471.28
2023-11-29T02:21:25.232Z,99477.78
2023-11-29T02:24:04.311Z,99471.72
2023-11-29T02:26:37.190Z,99470.25
2023-11-29T02:29:07.124Z,99454.81
2023-11-29T02:31:37.048Z,99454.19
2023-11-29T02:34:07.176Z,99455.00
2023-11-29T02:36:37.167Z,99440.97
2023-11-29T02:39:07.308Z,99440.78
2023-11-29T02:41:42.860Z,99433.06
2023-11-29T02:44:12.803Z,99430.97
2023-11-29T02:46:42.732Z,99432.16
2023-11-29T02:49:12.597Z,99430.94
2023-11-29T02:51:42.455Z,99419.16
2023-11-29T02:54:12.431Z,99431.31
2023-11-29T02:56:45.355Z,99419.72
2023-11-29T02:59:15.444Z,99415.84
2023-11-29T03:01:45.509Z,99420.19
2023-11-29T03:04:15.588Z,99434.13
2023-11-29T03:06:45.862Z,99428.66
2023-11-29T03:09:15.915Z,99428.63
2023-11-29T03:11:49.017Z,99427.75
2023-11-29T03:14:19.165Z,99421.44
2023-11-29T03:16:49.234Z,99425.94
2023-11-29T03:19:19.228Z,99413.91
2023-11-29T03:21:49.520Z,99415.75
2023-11-29T03:24:20.644Z,99408.53
2023-11-29T03:26:53.640Z,99404.81
2023-11-29T03:29:23.626Z,99398.69
2023-11-29T03:31:53.739Z,99399.53
2023-11-29T03:34:24.292Z,99395.00
2023-11-29T03:36:54.135Z,99388.63
2023-11-29T03:39:23.996Z,99385.81
2023-11-29T03:41:56.594Z,99386.44
2023-11-29T03:44:26.567Z,99380.34
2023-11-29T03:46:56.459Z,99380.75
2023-11-29T03:49:26.523Z,99381.50
2023-11-29T03:51:56.908Z,99368.56
2023-11-29T03:54:26.959Z,99368.31
2023-11-29T03:56:59.655Z,99376.09
2023-11-29T03:59:29.573Z,99363.03
2023-11-29T04:01:59.453Z,99353.03
2023-11-29T04:04:30.448Z,99358.41
2023-11-29T04:07:01.141Z,99354.06
2023-11-29T04:09:31.753Z,99348.19
2023-11-29T04:12:04.476Z,99339.41
2023-11-29T04:14:35.632Z,99344.84
2023-11-29T04:17:06.036Z,99338.53
2023-11-29T04:19:36.227Z,99344.31
2023-11-29T04:22:06.538Z,99334.63
2023-11-29T04:24:34.761Z,99331.91
2023-11-29T04:27:08.391Z,99327.03
2023-11-29T04:29:39.556Z,99328.09
2023-11-29T04:32:11.210Z,99326.22
2023-11-29T04:34:47.599Z,99318.25
2023-11-29T04:37:20.276Z,99327.75
2023-11-29T04:39:50.807Z,99310.25
2023-11-29T04:42:24.885Z,99309.94
2023-11-29T04:44:54.850Z,99318.78
2023-11-29T04:47:25.248Z,99308.03
2023-11-29T04:49:55.333Z,99310.31
2023-11-29T04:52:25.368Z,99312.13
2023-11-29T04:54:55.324Z,99298.47
2023-11-29T04:57:27.730Z,99309.63
2023-11-29T04:59:57.722Z,99306.38
2023-11-29T05:02:27.607Z,99303.97
2023-11-29T05:04:57.726Z,99290.25
2023-11-29T05:07:27.521Z,99298.16
2023-11-29T05:09:57.385Z,99297.63
2023-11-29T05:12:29.929Z,99293.72
2023-11-29T05:14:59.784Z,99296.22
2023-11-29T05:17:29.880Z,99293.78
2023-11-29T05:19:59.772Z,99289.63
2023-11-29T05:22:29.543Z,99288.81
2023-11-29T05:24:59.447Z,99287.44
2023-11-29T05:27:31.922Z,99285.22
2023-11-29T05:30:01.841Z,99271.75
2023-11-29T05:32:31.984Z,99274.69
2023-11-29T05:35:01.954Z,99270.28
2023-11-29T05:37:31.864Z,99265.66
2023-11-29T05:40:01.604Z,99271.03
2023-11-29T05:42:34.003Z,99264.88
2023-11-29T05:45:05.190Z,99270.41
2023-11-29T05:47:35.138Z,99256.75
2023-11-29T05:50:05.173Z,99258.81
2023-11-29T05:52:34.938Z,99271.66
2023-11-29T05:55:04.832Z,99274.06
2023-11-29T05:57:37.393Z,99274.88
2023-11-29T06:00:24.254Z,99263.72
2023-11-29T06:03:02.854Z,99261.16
2023-11-29T06:05:33.060Z,99257.94
2023-11-29T06:08:03.062Z,99260.75
2023-11-29T06:10:32.922Z,99269.84
2023-11-29T06:13:05.718Z,99263.59
2023-11-29T06:15:35.566Z,99259.50
2023-11-29T06:18:06.986Z,99261.97
2023-11-29T06:20:39.510Z,99257.88
2023-11-29T06:23:09.843Z,99257.22
2023-11-29T06:25:39.652Z,99260.94
2023-11-29T06:28:12.064Z,99260.56
2023-11-29T06:30:42.417Z,99262.59
2023-11-29T06:33:12.382Z,99259.94
2023-11-29T06:35:42.430Z,99253.47
2023-11-29T06:38:12.341Z,99261.41
2023-11-29T06:40:47.258Z,99256.09
2023-11-29T06:43:23.187Z,99258.50
2023-11-29T06:45:53.622Z,99243.69
2023-11-29T06:48:23.493Z,99248.97
2023-11-29T06:50:55.084Z,99244.50
2023-11-29T06:53:25.026Z,99244.13
2023-11-29T06:55:55.877Z,99245.06
2023-11-29T06:58:28.298Z,99243.69
2023-11-29T07:00:58.149Z,99249.13
2023-11-29T07:03:28.855Z,99245.06
2023-11-29T07:06:01.021Z,99241.69
2023-11-29T07:08:32.770Z,99234.34
2023-11-29T07:11:05.855Z,99242.56
2023-11-29T07:13:38.814Z,99240.25
2023-11-29T07:16:09.232Z,99248.38
2023-11-29T07:18:39.140Z,99246.09
2023-11-29T07:21:09.446Z,99260.38
2023-11-29T07:23:39.301Z,99254.25
2023-11-29T07:26:09.428Z,99254.03
2023-11-29T07:28:42.010Z,99260.56
2023-11-29T07:31:12.952Z,99257.06
2023-11-29T07:33:42.913Z,99261.16
2023-11-29T07:36:15.429Z,99264.16
2023-11-29T07:38:47.011Z,99267.59
2023-11-29T07:41:17.968Z,99255.19
2023-11-29T07:43:50.427Z,99262.28
2023-11-29T07:46:20.351Z,99255.19
2023-11-29T07:48:50.246Z,99259.00
2023-11-29T07:51:23.741Z,99247.19
2023-11-29T07:53:53.653Z,99260.56
2023-11-29T07:56:23.483Z,99252.53
2023-11-29T07:58:56.030Z,99257.63
2023-11-29T08:01:25.834Z,99260.84
2023-11-29T08:03:55.589Z,99248.66
2023-11-29T08:06:25.626Z,99263.06
2023-11-29T08:08:55.461Z,99262.28
2023-11-29T08:11:26.404Z,99263.06
2023-11-29T08:13:59.274Z,99254.19
2023-11-29T08:16:30.208Z,99254.41
2023-11-29T08:19:00.719Z,99253.16
2023-11-29T08:21:32.079Z,99251.56
2023-11-29T08:24:01.991Z,99249.88
2023-11-29T08:26:31.799Z,99246.47
2023-11-29T08:29:04.210Z,99252.06
2023-11-29T08:31:33.992Z,99252.31
2023-11-29T08:34:03.831Z,99249.84
2023-11-29T08:36:33.708Z,99248.59
2023-11-29T08:39:03.980Z,99250.47
2023-11-29T08:41:33.980Z,99250.91
2023-11-29T08:44:06.774Z,99254.88
2023-11-29T08:46:36.629Z,99250.84
2023-11-29T08:49:06.616Z,99251.34
2023-11-29T08:51:36.674Z,99253.72
2023-11-29T08:54:06.972Z,99250.25
2023-11-29T08:56:37.033Z,99246.00
2023-11-29T08:59:09.499Z,99245.19
2023-11-29T09:01:39.436Z,99239.81
2023-11-29T09:04:09.309Z,99244.09
2023-11-29T09:06:39.326Z,99240.19
2023-11-29T09:09:09.764Z,99233.88
2023-11-29T09:11:40.179Z,99247.19
2023-11-29T09:14:12.626Z,99248.94
2023-11-29T09:16:42.596Z,99241.66
2023-11-29T09:19:12.444Z,99246.25
2023-11-29T09:21:45.215Z,99249.84
2023-11-29T09:24:15.127Z,99247.19
2023-11-29T09:26:45.115Z,99255.03
2023-11-29T09:29:17.715Z,99245.78
2023-11-29T09:31:47.677Z,99249.69
2023-11-29T09:34:17.504Z,99243.13
2023-11-29T09:36:47.728Z,99241.63
2023-11-29T09:39:19.649Z,99246.97
2023-11-29T09:41:49.562Z,99252.78
2023-11-29T09:44:22.194Z,99249.13
2023-11-29T09:46:52.323Z,99243.84
2023-11-29T09:49:22.485Z,99243.97
2023-11-29T09:51:52.282Z,99241.97
2023-11-29T09:54:22.189Z,99239.47
2023-11-29T09:56:52.049Z,99245.59
2023-11-29T09:59:24.938Z,99241.63
2023-11-29T10:01:55.897Z,99237.88
2023-11-29T10:04:27.908Z,99237.66
2023-11-29T10:06:57.743Z,99236.97
2023-11-29T10:09:27.536Z,99239.13
2023-11-29T10:11:58.093Z,99236.75
2023-11-29T10:14:30.799Z,99236.47
2023-11-29T10:17:00.547Z,99230.50
2023-11-29T10:19:30.471Z,99227.16
2023-11-29T10:22:00.228Z,99222.75
2023-11-29T10:24:30.629Z,99222.75
2023-11-29T10:27:00.567Z,99226.03
2023-11-29T10:29:35.217Z,99221.66
2023-11-29T10:32:07.418Z,99212.38
2023-11-29T10:34:38.052Z,99217.66
2023-11-29T10:37:09.719Z,99215.72
2023-11-29T10:39:41.935Z,99212.94
2023-11-29T10:42:12.402Z,99220.44
2023-11-29T10:44:47.342Z,99217.03
2023-11-29T10:47:22.028Z,99212.78
2023-11-29T10:49:54.389Z,99216.34
2023-11-29T10:52:26.348Z,99211.53
2023-11-29T10:54:57.135Z,99209.09
2023-11-29T10:57:32.976Z,99214.25
2023-11-29T11:00:15.117Z,99209.75
2023-11-29T11:02:46.330Z,99214.03
2023-11-29T11:05:19.667Z,99207.41
2023-11-29T11:07:50.609Z,99207.63
2023-11-29T11:10:26.553Z,99204.41
2023-11-29T11:12:59.763Z,99205.19
2023-11-29T11:15:37.096Z,99202.56
2023-11-29T11:18:27.914Z,99202.19
2023-11-29T11:21:01.203Z,99206.16
2023-11-29T11:23:31.622Z,99195.28
2023-11-29T11:26:02.298Z,99191.66
2023-11-29T11:28:36.091Z,99186.97
2023-11-29T11:31:11.094Z,99186.22
2023-11-29T11:34:11.009Z,99184.56
2023-11-29T11:36:41.720Z,99179.84
2023-11-29T11:39:12.256Z,99181.69
2023-11-29T11:41:42.400Z,99172.78
2023-11-29T11:44:12.487Z,99175.00
2023-11-29T11:46:44.953Z,99170.56
2023-11-29T11:49:14.814Z,99168.81
2023-11-29T11:51:44.647Z,99173.78
2023-11-29T11:54:14.411Z,99165.41
2023-11-29T11:56:44.175Z,99178.22
2023-11-29T11:59:14.006Z,99175.63
2023-11-29T12:01:46.760Z,99169.44
2023-11-29T12:04:18.996Z,99169.00
2023-11-29T12:06:48.892Z,99174.66
2023-11-29T12:09:20.230Z,99175.91
2023-11-29T12:11:50.664Z,99175.31
2023-11-29T12:14:20.948Z,99173.19
2023-11-29T12:16:57.429Z,99168.31
2023-11-29T12:19:27.369Z,99164.50
2023-11-29T12:21:58.578Z,99156.41
2023-11-29T12:24:36.068Z,99164.97
2023-11-29T12:27:11.219Z,99166.13
2023-11-29T12:29:42.386Z,99154.81
2023-11-29T12:32:15.104Z,99166.72
2023-11-29T12:34:45.976Z,99160.94
2023-11-29T12:37:17.245Z,99161.56
2023-11-29T12:39:47.878Z,99165.06
2023-11-29T12:42:18.678Z,99167.84
2023-11-29T12:44:48.546Z,99164.06
2023-11-29T12:47:24.740Z,99160.72
2023-11-29T12:49:54.641Z,99167.63
2023-11-29T12:52:24.432Z,99164.56
2023-11-29T12:54:54.186Z,99174.03
2023-11-29T12:57:24.002Z,99173.09
2023-11-29T12:59:53.882Z,99175.63
2023-11-29T13:02:26.327Z,99181.75
2023-11-29T13:04:56.383Z,99178.75
2023-11-29T13:07:26.231Z,99174.13
2023-11-29T13:09:55.979Z,99173.47
2023-11-29T13:12:25.830Z,99185.22
2023-11-29T13:14:55.656Z,99183.72
2023-11-29T13:17:28.168Z,99179.94
2023-11-29T13:19:57.991Z,99190.53
2023-11-29T13:22:27.810Z,99184.72
2023-11-29T13:24:57.623Z,99189.28
2023-11-29T13:27:27.468Z,99180.84
2023-11-29T13:29:57.238Z,99180.28
2023-11-29T13:32:29.835Z,99187.75
2023-11-29T13:34:59.606Z,99187.03
2023-11-29T13:37:29.374Z,99185.16
2023-11-29T13:39:59.141Z,99192.72
2023-11-29T13:42:29.273Z,99188.38
2023-11-29T13:45:02.711Z,99189.03
2023-11-29T13:47:36.694Z,99191.81
2023-11-29T13:50:07.114Z,99201.53
2023-11-29T13:52:37.405Z,99204.47
2023-11-29T13:55:08.012Z,99205.44
2023-11-29T13:57:37.907Z,99208.53
2023-11-29T14:00:10.812Z,99213.00
2023-11-29T14:02:43.958Z,99223.03
2023-11-29T14:05:14.153Z,99221.88
2023-11-29T14:07:44.038Z,99231.22
2023-11-29T14:10:13.923Z,99231.81
2023-11-29T14:12:43.844Z,99247.84
2023-11-29T14:15:14.189Z,99245.00
2023-11-29T14:17:46.670Z,99246.09
2023-11-29T14:20:17.641Z,99255.50
2023-11-29T14:22:47.413Z,99257.84
2023-11-29T14:25:17.818Z,99265.44
2023-11-29T14:27:54.389Z,99267.31
2023-11-29T14:30:27.713Z,99274.09
2023-11-29T14:33:00.305Z,99274.63
2023-11-29T14:35:30.342Z,99276.50
2023-11-29T14:38:00.206Z,99274.91
2023-11-29T14:40:30.058Z,99293.59
2023-11-29T14:43:00.807Z,99292.53
2023-11-29T14:45:30.637Z,99298.78
2023-11-29T14:48:03.126Z,99306.50
2023-11-29T14:50:32.988Z,99309.38
2023-11-29T14:53:02.834Z,99323.03
2023-11-29T14:55:32.603Z,99316.97
2023-11-29T14:58:02.399Z,99314.44
2023-11-29T15:00:32.279Z,99324.09
2023-11-29T15:03:04.758Z,99320.19
2023-11-29T15:05:35.860Z,99336.69
2023-11-29T15:08:06.114Z,99329.28
2023-11-29T15:10:36.128Z,99342.75
2023-11-29T15:13:06.040Z,99349.19
2023-11-29T15:15:35.831Z,99345.09
2023-11-29T15:18:08.628Z,99349.34
2023-11-29T15:20:38.478Z,99361.91
2023-11-29T15:23:08.622Z,99361.06
2023-11-29T15:25:38.445Z,99365.66
2023-11-29T15:28:08.328Z,99367.59
2023-11-29T15:30:38.086Z,99373.91
2023-11-29T15:33:10.718Z,99380.06
2023-11-29T15:35:40.659Z,99385.84
2023-11-29T15:38:11.149Z,99386.03
2023-11-29T15:40:46.192Z,99401.72
2023-11-29T15:43:16.638Z,99407.44
2023-11-29T15:45:46.590Z,99403.50
2023-11-29T15:48:19.207Z,99413.28
2023-11-29T15:50:49.105Z,99420.41
2023-11-29T15:53:19.153Z,99425.22
2023-11-29T15:55:50.334Z,99435.47
2023-11-29T15:58:20.172Z,99438.13
2023-11-29T16:00:49.927Z,99441.09
2023-11-29T16:03:22.342Z,99449.28
2023-11-29T16:05:57.750Z,99459.78
2023-11-29T16:08:27.582Z,99454.09
2023-11-29T16:10:58.962Z,99461.44
2023-11-29T16:13:28.827Z,99465.41
2023-11-29T16:15:58.608Z,99475.97
2023-11-29T16:18:31.066Z,99472.84
2023-11-29T16:21:00.893Z,99480.03
2023-11-29T16:23:30.712Z,99483.69
2023-11-29T16:26:00.532Z,99482.41
2023-11-29T16:28:32.344Z,99481.31
2023-11-29T16:31:02.295Z,99483.13
2023-11-29T16:33:35.136Z,99484.53
2023-11-29T16:36:05.507Z,99478.69
2023-11-29T16:38:35.363Z,99491.09
2023-11-29T16:41:05.215Z,99500.56
2023-11-29T16:43:35.012Z,99507.25
2023-11-29T16:46:05.522Z,99521.94
2023-11-29T16:48:38.247Z,99522.22
2023-11-29T16:51:09.090Z,99532.00
2023-11-29T16:53:38.941Z,99536.03
2023-11-29T16:56:11.084Z,99531.28
2023-11-29T16:58:41.913Z,99529.81
2023-11-29T17:01:12.396Z,99533.25
2023-11-29T17:03:44.835Z,99526.69
2023-11-29T17:06:14.844Z,99530.38
2023-11-29T17:08:44.698Z,99539.94
2023-11-29T17:11:14.523Z,99544.59
2023-11-29T17:13:44.318Z,99563.72
2023-11-29T17:16:14.282Z,99557.59
2023-11-29T17:18:46.668Z,99558.06
2023-11-29T17:21:16.597Z,99563.16
2023-11-29T17:23:46.456Z,99560.72
2023-11-29T17:26:16.374Z,99560.91
2023-11-29T17:28:46.387Z,99569.50
2023-11-29T17:31:16.159Z,99582.91
2023-11-29T17:33:48.582Z,99588.22
2023-11-29T17:36:18.379Z,99587.97
2023-11-29T17:38:48.208Z,99595.78
2023-11-29T17:41:17.970Z,99588.44
2023-11-29T17:43:47.772Z,99601.88
2023-11-29T17:46:17.669Z,99599.06
2023-11-29T17:48:50.189Z,99606.38
2023-11-29T17:51:20.091Z,99611.66
2023-11-29T17:53:49.911Z,99614.50
2023-11-29T17:56:28.429Z,99609.78
2023-11-29T17:59:02.318Z,99630.31
2023-11-29T18:01:32.110Z,99624.41
2023-11-29T18:04:06.929Z,99631.59
2023-11-29T18:06:37.846Z,99629.56
2023-11-29T18:09:09.970Z,99638.91
2023-11-29T18:11:41.707Z,99635.50
2023-11-29T18:14:12.483Z,99643.63
2023-11-29T18:16:44.364Z,99642.78
2023-11-29T18:19:19.201Z,99652.53
2023-11-29T18:21:48.944Z,99657.22
2023-11-29T18:24:18.768Z,99654.59
2023-11-29T18:26:49.985Z,99653.97
2023-11-29T18:29:19.802Z,99658.84
2023-11-29T18:31:51.212Z,99658.47
2023-11-29T18:34:25.696Z,99663.94
2023-11-29T18:36:55.745Z,99664.13
2023-11-29T18:39:25.527Z,99669.63
2023-11-29T18:41:55.647Z,99672.06
2023-11-29T18:44:25.458Z,99669.25
2023-11-29T18:46:55.214Z,99677.34
2023-11-29T18:49:27.714Z,99673.50
2023-11-29T18:51:57.474Z,99670.25
2023-11-29T18:54:27.833Z,99671.66
2023-11-29T18:56:57.609Z,99675.75
2023-11-29T18:59:27.415Z,99684.88
2023-11-29T19:01:57.243Z,99681.41
2023-11-29T19:04:29.761Z,99689.38
2023-11-29T19:06:59.559Z,99682.03
2023-11-29T19:09:30.509Z,99694.25
2023-11-29T19:12:01.068Z,99689.16
2023-11-29T19:14:30.895Z,99685.31
2023-11-29T19:17:01.174Z,99703.38
2023-11-29T19:19:33.548Z,99706.44
2023-11-29T19:22:03.333Z,99717.44
2023-11-29T19:24:33.079Z,99716.19
2023-11-29T19:27:04.368Z,99715.59
2023-11-29T19:29:34.368Z,99721.69
2023-11-29T19:32:04.048Z,99722.50
2023-11-29T19:34:36.454Z,99716.00
2023-11-29T19:37:06.409Z,99719.88
2023-11-29T19:39:36.142Z,99714.97
2023-11-29T19:42:06.163Z,99725.56
2023-11-29T19:44:36.169Z,99720.06
2023-11-29T19:47:12.464Z,99713.75
2023-11-29T19:49:47.390Z,99718.44
2023-11-29T19:52:18.714Z,99724.13
2023-11-29T19:54:48.428Z,99724.09
2023-11-29T19:57:18.215Z,99720.03
2023-11-29T19:59:49.859Z,99725.72
2023-11-29T20:02:20.123Z,99729.16
2023-11-29T20:04:52.664Z,99731.44
2023-11-29T20:07:22.418Z,99733.84
2023-11-29T20:09:52.309Z,99735.09
2023-11-29T20:12:22.131Z,99735.69
2023-11-29T20:14:57.244Z,99734.91
2023-11-29T20:17:27.895Z,99732.44
2023-11-29T20:20:04.396Z,99736.72
2023-11-29T20:22:40.630Z,99742.59
2023-11-29T20:25:11.014Z,99742.59
2023-11-29T20:27:42.932Z,99743.22
2023-11-29T20:30:14.171Z,99745.22
2023-11-29T20:32:44.014Z,99752.56
2023-11-29T20:35:32.426Z,99746.09
2023-11-29T20:38:06.075Z,99754.59
2023-11-29T20:40:44.020Z,99755.63
2023-11-29T20:43:17.065Z,99758.66
2023-11-29T20:45:47.203Z,99760.72
2023-11-29T20:48:17.113Z,99757.66
2023-11-29T20:50:49.346Z,99763.31
2023-11-29T20:53:19.892Z,99758.66
2023-11-29T20:55:50.959Z,99757.19
2023-11-29T20:58:22.075Z,99748.09
2023-11-29T21:00:52.525Z,99751.72
2023-11-29T21:03:22.544Z,99746.44
2023-11-29T21:05:54.859Z,99753.53
2023-11-29T21:08:24.578Z,99760.44
2023-11-29T21:10:54.202Z,99761.31
2023-11-29T21:13:24.342Z,99768.38
2023-11-29T21:15:54.128Z,99772.84
2023-11-29T21:18:23.794Z,99766.56
2023-11-29T21:20:56.065Z,99775.69
2023-11-29T21:23:25.655Z,99771.00
2023-11-29T21:25:55.261Z,99776.91
2023-11-29T21:28:24.928Z,99773.63
2023-11-29T21:30:54.610Z,99784.19
2023-11-29T21:33:24.310Z,99784.19
2023-11-29T21:35:56.593Z,99781.97
2023-11-29T21:38:26.296Z,99781.75
2023-11-29T21:40:55.898Z,99782.56
2023-11-29T21:43:25.764Z,99780.94
2023-11-29T21:45:55.549Z,99788.22
2023-11-29T21:48:25.284Z,99777.06
2023-11-29T21:50:57.573Z,99771.38
2023-11-29T21:53:27.165Z,99766.69
2023-11-29T21:55:56.733Z,99762.41
2023-11-29T21:58:26.313Z,99758.38
2023-11-29T22:00:55.900Z,99758.97
2023-11-29T22:03:25.564Z,99758.16
2023-11-29T22:05:58.536Z,99769.88
2023-11-29T22:08:28.168Z,99778.25
2023-11-29T22:10:57.826Z,99784.75
2023-11-29T22:13:27.484Z,99784.78
2023-11-29T22:15:57.112Z,99790.06
2023-11-29T22:18:26.763Z,99784.19
2023-11-29T22:20:59.109Z,99780.94
2023-11-29T22:23:28.742Z,99777.25
2023-11-29T22:25:59.348Z,99780.28
2023-11-29T22:28:30.859Z,99781.09
2023-11-29T22:31:00.469Z,99769.69
2023-11-29T22:33:30.148Z,99773.97
2023-11-29T22:36:02.366Z,99778.00
2023-11-29T22:38:32.186Z,99767.69
2023-11-29T22:41:01.975Z,99774.81
2023-11-29T22:43:31.787Z,99765.50
2023-11-29T22:46:01.436Z,99768.75
2023-11-29T22:48:31.117Z,99776.66
2023-11-29T22:51:03.409Z,99774.22
2023-11-29T22:53:33.000Z,99783.47
2023-11-29T22:56:02.561Z,99778.97
2023-11-29T22:58:32.126Z,99782.41
2023-11-29T23:01:01.956Z,99780.56
2023-11-29T23:03:34.189Z,99788.53
2023-11-29T23:06:08.752Z,99773.09
2023-11-29T23:08:38.381Z,99779.88
2023-11-29T23:11:08.476Z,99767.88
2023-11-29T23:13:38.141Z,99768.28
2023-11-29T23:16:08.770Z,99775.63
2023-11-29T23:18:38.513Z,99772.59
2023-11-29T23:21:11.531Z,99781.13
2023-11-29T23:23:41.752Z,99785.78
2023-11-29T23:26:11.385Z,99773.56
2023-11-29T23:28:40.980Z,99787.75
2023-11-29T23:31:11.521Z,99790.22
2023-11-29T23:33:41.151Z,99795.47
2023-11-29T23:36:14.553Z,99797.47
2023-11-29T23:38:44.256Z,99785.06
2023-11-29T23:41:17.090Z,99796.25
2023-11-29T23:43:46.648Z,99796.22
2023-11-29T23:46:16.227Z,99801.25
2023-11-29T23:48:45.839Z,99806.88
2023-11-29T23:51:18.050Z,99802.59
2023-11-29T23:53:48.771Z,99800.00
2023-11-29T23:56:18.453Z,99803.06
2023-11-29T23:58:48.006Z,99804.69
